createdAt,value
2018-04-12T00:01:06.932Z,39.33
2018-04-12T00:03:34.502Z,37.57
2018-04-12T00:06:02.150Z,37.93
2018-04-12T00:08:29.716Z,36.90
2018-04-12T00:10:57.330Z,40.37
2018-04-12T00:13:25.666Z,39.10
2018-04-12T00:15:53.269Z,38.73
2018-04-12T00:18:21.602Z,39.57
2018-04-12T00:20:49.209Z,37.17
2018-04-12T00:23:16.768Z,39.93
2018-04-12T00:25:44.457Z,36.77
2018-04-12T00:28:12.024Z,38.50
2018-04-12T00:30:39.587Z,39.93
2018-04-12T00:33:07.193Z,38.10
2018-04-12T00:35:34.757Z,39.87
2018-04-12T00:38:02.378Z,38.40
2018-04-12T00:40:29.937Z,39.13
2018-04-12T00:42:57.547Z,39.43
2018-04-12T00:45:25.112Z,39.10
2018-04-12T00:47:52.721Z,38.17
2018-04-12T00:50:20.287Z,39.17
2018-04-12T00:52:47.888Z,38.93
2018-04-12T00:55:15.456Z,38.37
2018-04-12T00:57:43.828Z,37.63
2018-04-12T01:00:11.403Z,38.73
2018-04-12T01:02:39.876Z,37.60
2018-04-12T01:05:07.446Z,36.37
2018-04-12T01:07:35.018Z,35.70
2018-04-12T01:10:02.640Z,37.37
2018-04-12T01:12:30.226Z,38.47
2018-04-12T01:14:57.787Z,38.50
2018-04-12T01:17:26.165Z,37.97
2018-04-12T01:19:54.547Z,37.50
2018-04-12T01:22:22.873Z,38.57
2018-04-12T01:24:50.432Z,37.73
2018-04-12T01:27:18.025Z,39.20
2018-04-12T01:29:45.593Z,38.73
2018-04-12T01:32:13.192Z,38.23
2018-04-12T01:34:40.797Z,37.97
2018-04-12T01:37:08.407Z,40.10
2018-04-12T01:39:35.972Z,39.53
2018-04-12T01:42:03.581Z,38.43
2018-04-12T01:44:31.159Z,39.73
2018-04-12T01:46:58.764Z,39.20
2018-04-12T01:49:26.328Z,38.60
2018-04-12T01:51:53.891Z,38.00
2018-04-12T01:54:21.502Z,39.10
2018-04-12T01:56:49.082Z,38.67
2018-04-12T01:59:17.417Z,38.43
2018-04-12T02:01:45.041Z,36.97
2018-04-12T02:04:12.632Z,37.63
2018-04-12T02:06:41.037Z,36.70
2018-04-12T02:09:08.606Z,36.20
2018-04-12T02:11:36.174Z,34.63
2018-04-12T02:14:04.646Z,32.73
2018-04-12T02:16:32.261Z,31.40
2018-04-12T02:18:59.827Z,31.90
2018-04-12T02:21:27.441Z,31.00
2018-04-12T02:23:55.805Z,28.63
2018-04-12T02:26:23.460Z,28.37
2018-04-12T02:28:51.049Z,27.47
2018-04-12T02:31:19.374Z,25.43
2018-04-12T02:33:47.008Z,25.93
2018-04-12T02:36:14.614Z,24.53
2018-04-12T02:38:42.177Z,23.77
2018-04-12T02:41:09.790Z,21.00
2018-04-12T02:43:37.355Z,21.77
2018-04-12T02:46:04.980Z,20.67
2018-04-12T02:48:32.597Z,18.90
2018-04-12T02:51:00.216Z,18.03
2018-04-12T02:53:28.554Z,18.17
2018-04-12T02:55:56.195Z,16.80
2018-04-12T02:58:23.893Z,17.97
2018-04-12T03:00:51.469Z,18.20
2018-04-12T03:03:19.089Z,17.33
2018-04-12T03:05:46.661Z,16.47
2018-04-12T03:08:14.223Z,16.33
2018-04-12T03:10:41.873Z,16.07
2018-04-12T03:13:09.447Z,16.83
2018-04-12T03:15:39.831Z,16.77
2018-04-12T03:18:07.437Z,15.97
2018-04-12T03:20:35.069Z,16.07
2018-04-12T03:23:02.639Z,16.00
2018-04-12T03:25:30.245Z,16.37
2018-04-12T03:27:57.818Z,16.57
2018-04-12T03:30:26.191Z,16.83
2018-04-12T03:32:53.765Z,17.30
2018-04-12T03:35:22.150Z,15.73
2018-04-12T03:37:50.537Z,16.77
2018-04-12T03:40:18.118Z,17.47
2018-04-12T03:42:45.733Z,17.23
2018-04-12T03:45:13.667Z,17.03
2018-04-12T03:47:41.245Z,16.37
2018-04-12T03:50:09.046Z,16.83
2018-04-12T03:52:36.678Z,17.40
2018-04-12T03:55:04.347Z,17.33
2018-04-12T03:57:31.956Z,16.07
2018-04-12T03:59:59.630Z,17.63
2018-04-12T04:02:27.201Z,16.63
2018-04-12T04:04:54.766Z,18.23
2018-04-12T04:07:22.450Z,17.27
2018-04-12T04:09:49.987Z,18.00
2018-04-12T04:12:17.576Z,18.87
2018-04-12T04:17:59.836Z,18.87
2018-04-12T04:20:39.373Z,18.00
2018-04-12T04:23:06.940Z,18.37
2018-04-12T04:28:08.486Z,18.97
2018-04-12T04:30:36.053Z,20.67
2018-04-12T04:33:04.389Z,21.33
2018-04-12T04:35:32.021Z,20.57
2018-04-12T04:37:59.665Z,21.83
2018-04-12T04:40:28.085Z,22.23
2018-04-12T04:42:55.709Z,21.70
2018-04-12T04:45:23.427Z,24.63
2018-04-12T04:47:51.008Z,22.87
2018-04-12T04:50:18.568Z,23.27
2018-04-12T04:52:46.241Z,24.83
2018-04-12T04:55:14.579Z,25.20
2018-04-12T04:57:42.146Z,24.83
2018-04-12T05:00:09.821Z,26.03
2018-04-12T05:02:37.456Z,25.87
2018-04-12T05:05:05.024Z,25.10
2018-04-12T05:07:32.632Z,25.40
2018-04-12T05:10:00.260Z,24.77
2018-04-12T05:12:27.888Z,26.30
2018-04-12T05:14:56.215Z,25.40
2018-04-12T05:17:26.746Z,26.17
2018-04-12T05:19:54.683Z,24.40
2018-04-12T05:22:22.913Z,25.40
2018-04-12T05:24:52.744Z,23.30
2018-04-12T05:27:21.937Z,25.47
2018-04-12T05:29:49.691Z,24.90
2018-04-12T05:32:18.126Z,24.37
2018-04-12T05:34:45.740Z,25.10
2018-04-12T05:37:13.413Z,25.07
2018-04-12T05:39:43.216Z,26.73
2018-04-12T05:42:10.848Z,27.13
2018-04-12T05:44:38.442Z,28.87
2018-04-12T05:47:06.045Z,32.27
2018-04-12T05:49:33.646Z,31.73
2018-04-12T05:52:01.277Z,34.57
2018-04-12T05:54:28.903Z,38.37
2018-04-12T05:56:56.805Z,38.37
2018-04-12T05:59:24.419Z,38.63
2018-04-12T06:01:52.040Z,38.07
2018-04-12T06:04:19.605Z,36.63
2018-04-12T06:06:47.176Z,37.37
2018-04-12T06:09:14.791Z,35.83
2018-04-12T06:11:42.373Z,31.40
2018-04-12T06:14:10.005Z,31.40
2018-04-12T06:16:37.585Z,28.70
2018-04-12T06:19:06.311Z,31.27
2018-04-12T06:21:34.645Z,28.20
2018-04-12T06:24:02.240Z,28.77
2018-04-12T06:26:29.844Z,29.80
2018-04-12T06:28:57.457Z,27.87
2018-04-12T06:31:25.069Z,28.10
2018-04-12T06:33:52.637Z,28.70
2018-04-12T06:36:20.267Z,28.60
2018-04-12T06:38:48.638Z,28.33
2018-04-12T06:41:16.212Z,28.53
2018-04-12T06:43:44.681Z,27.57
2018-04-12T06:46:12.289Z,29.43
2018-04-12T06:48:39.898Z,29.87
2018-04-12T06:51:07.489Z,27.47
2018-04-12T06:53:35.099Z,27.63
2018-04-12T06:56:02.671Z,26.40
2018-04-12T06:58:30.413Z,28.17
2018-04-12T07:00:57.978Z,27.67
2018-04-12T07:03:25.951Z,26.90
2018-04-12T07:05:53.591Z,26.97
2018-04-12T07:08:21.190Z,25.53
2018-04-12T07:10:48.798Z,25.80
2018-04-12T07:13:16.428Z,25.27
2018-04-12T07:15:44.013Z,23.90
2018-04-12T07:18:11.594Z,23.73
2018-04-12T07:20:39.511Z,23.57
2018-04-12T07:23:07.145Z,24.10
2018-04-12T07:25:34.772Z,22.70
2018-04-12T07:28:02.350Z,22.97
2018-04-12T07:30:29.961Z,22.80
2018-04-12T07:32:58.294Z,23.07
2018-04-12T07:35:25.856Z,23.20
2018-04-12T07:37:53.730Z,23.00
2018-04-12T07:40:21.336Z,25.43
2018-04-12T07:42:49.721Z,25.30
2018-04-12T07:45:18.104Z,24.37
2018-04-12T07:47:46.445Z,24.83
2018-04-12T07:50:14.074Z,23.67
2018-04-12T07:52:41.640Z,24.50
2018-04-12T07:55:09.321Z,23.83
2018-04-12T07:57:36.968Z,24.90
2018-04-12T08:00:04.581Z,25.00
2018-04-12T08:02:32.926Z,24.43
2018-04-12T08:05:00.547Z,23.87
2018-04-12T08:07:28.121Z,24.27
2018-04-12T08:09:55.724Z,25.20
2018-04-12T08:12:23.297Z,25.57
2018-04-12T08:14:50.902Z,26.77
2018-04-12T08:17:18.512Z,26.03
2018-04-12T08:19:46.121Z,24.97
2018-04-12T08:22:13.684Z,26.70
2018-04-12T08:24:41.310Z,26.77
2018-04-12T08:27:08.897Z,25.13
2018-04-12T08:29:36.826Z,26.70
2018-04-12T08:32:04.943Z,26.27
2018-04-12T08:34:33.239Z,25.87
2018-04-12T08:37:01.696Z,27.30
2018-04-12T08:39:30.898Z,26.33
2018-04-12T08:41:58.513Z,27.30
2018-04-12T08:44:26.130Z,28.37
2018-04-12T08:46:53.699Z,28.33
2018-04-12T08:49:21.370Z,28.17
2018-04-12T08:51:48.981Z,28.30
2018-04-12T08:54:17.361Z,27.90
2018-04-12T08:56:45.732Z,28.20
2018-04-12T08:59:14.109Z,27.60
2018-04-12T09:01:41.727Z,28.23
2018-04-12T09:04:09.304Z,27.53
2018-04-12T09:06:36.871Z,26.47
2018-04-12T09:09:04.481Z,26.60
2018-04-12T09:11:32.073Z,26.23
2018-04-12T09:13:59.690Z,26.67
2018-04-12T09:16:28.047Z,28.57
2018-04-12T09:18:55.622Z,27.70
2018-04-12T09:21:24.050Z,29.63
2018-04-12T09:23:51.722Z,29.60
2018-04-12T09:26:19.336Z,28.17
2018-04-12T09:28:46.913Z,29.00
2018-04-12T09:31:14.622Z,27.93
2018-04-12T09:33:42.220Z,28.47
2018-04-12T09:36:10.600Z,29.87
2018-04-12T09:38:38.991Z,28.77
2018-04-12T09:41:06.569Z,30.93
2018-04-12T09:43:34.172Z,28.70
2018-04-12T09:46:01.780Z,30.10
2018-04-12T09:48:29.355Z,30.23
2018-04-12T09:50:56.981Z,29.23
2018-04-12T09:53:25.356Z,28.93
2018-04-12T09:55:52.936Z,29.67
2018-04-12T09:58:20.556Z,28.90
2018-04-12T10:00:53.707Z,29.90
2018-04-12T10:03:21.312Z,29.20
2018-04-12T10:05:54.554Z,28.90
2018-04-12T10:08:28.021Z,28.80
2018-04-12T10:10:56.377Z,27.67
2018-04-12T10:13:24.760Z,28.23
2018-04-12T10:15:52.331Z,28.27
2018-04-12T10:18:19.904Z,29.17
2018-04-12T10:20:47.519Z,27.37
2018-04-12T10:23:15.138Z,28.77
2018-04-12T10:25:42.719Z,28.77
2018-04-12T10:28:10.324Z,28.50
2018-04-12T10:30:37.897Z,26.60
2018-04-12T10:33:05.515Z,26.53
2018-04-12T10:35:33.113Z,27.40
2018-04-12T10:38:00.695Z,26.57
2018-04-12T10:40:29.099Z,25.00
2018-04-12T10:42:56.676Z,25.00
2018-04-12T10:45:24.310Z,26.80
2018-04-12T10:47:51.885Z,26.07
2018-04-12T10:50:19.500Z,25.53
2018-04-12T10:52:47.112Z,25.27
2018-04-12T10:55:14.737Z,24.97
2018-04-12T10:57:42.318Z,24.63
2018-04-12T11:00:09.914Z,25.80
2018-04-12T11:02:37.835Z,25.63
2018-04-12T11:05:05.494Z,24.83
2018-04-12T11:07:33.868Z,24.77
2018-04-12T11:10:01.449Z,26.43
2018-04-12T11:12:29.057Z,25.27
2018-04-12T11:14:56.663Z,25.23
2018-04-12T11:17:24.246Z,26.17
2018-04-12T11:19:51.865Z,26.53
2018-04-12T11:22:19.473Z,26.93
2018-04-12T11:24:47.097Z,25.37
2018-04-12T11:27:14.681Z,24.77
2018-04-12T11:29:42.294Z,26.27
2018-04-12T11:32:09.862Z,26.10
2018-04-12T11:34:37.488Z,24.07
2018-04-12T11:37:05.073Z,24.60
2018-04-12T11:39:32.682Z,24.67
2018-04-12T11:42:01.021Z,24.70
2018-04-12T11:44:28.644Z,22.73
2018-04-12T11:46:56.246Z,25.03
2018-04-12T11:49:23.828Z,23.17
2018-04-12T11:51:51.440Z,24.33
2018-04-12T11:54:19.025Z,23.83
2018-04-12T11:56:46.734Z,25.27
2018-04-12T11:59:15.107Z,23.77
2018-04-12T12:01:43.529Z,24.10
2018-04-12T12:04:11.127Z,23.43
2018-04-12T12:06:38.756Z,24.13
2018-04-12T12:09:06.390Z,24.67
2018-04-12T12:11:33.965Z,24.00
2018-04-12T12:14:01.546Z,25.53
2018-04-12T12:16:29.158Z,25.17
2018-04-12T12:18:57.502Z,24.47
2018-04-12T12:21:25.122Z,23.77
2018-04-12T12:23:52.705Z,23.87
2018-04-12T12:26:20.334Z,24.53
2018-04-12T12:28:47.957Z,23.47
2018-04-12T12:31:15.540Z,25.67
2018-04-12T12:33:43.893Z,23.37
2018-04-12T12:36:11.528Z,23.17
2018-04-12T12:38:39.104Z,23.83
2018-04-12T12:41:06.684Z,24.10
2018-04-12T12:43:34.301Z,24.10
2018-04-12T12:46:01.878Z,22.63
2018-04-12T12:48:30.227Z,21.77
2018-04-12T12:50:57.834Z,22.93
2018-04-12T12:53:25.454Z,22.37
2018-04-12T12:55:53.189Z,23.83
2018-04-12T12:58:20.752Z,23.10
2018-04-12T13:00:48.328Z,23.63
2018-04-12T13:03:16.124Z,23.73
2018-04-12T13:05:43.735Z,24.23
2018-04-12T13:08:12.124Z,23.97
2018-04-12T13:10:39.707Z,23.43
2018-04-12T13:13:07.399Z,23.40
2018-04-12T13:15:34.972Z,23.43
2018-04-12T13:18:02.557Z,23.73
2018-04-12T13:20:30.172Z,24.37
2018-04-12T13:22:57.742Z,24.90
2018-04-12T13:25:25.357Z,22.73
2018-04-12T13:27:53.701Z,24.17
2018-04-12T13:30:21.303Z,23.60
2018-04-12T13:32:49.075Z,23.23
2018-04-12T13:35:16.678Z,21.67
2018-04-12T13:37:44.298Z,22.47
2018-04-12T13:40:11.873Z,22.53
2018-04-12T13:42:39.693Z,21.77
2018-04-12T13:45:08.504Z,21.70
2018-04-12T13:47:36.229Z,21.03
2018-04-12T13:50:03.830Z,21.73
2018-04-12T13:52:31.465Z,21.27
2018-04-12T13:54:59.114Z,20.90
2018-04-12T13:57:26.718Z,21.37
2018-04-12T13:59:54.376Z,21.00
2018-04-12T14:02:22.760Z,21.77
2018-04-12T14:04:50.767Z,22.47
2018-04-12T14:07:18.746Z,21.03
2018-04-12T14:09:47.156Z,20.63
2018-04-12T14:12:14.752Z,21.07
2018-04-12T14:14:42.813Z,22.47
2018-04-12T14:17:10.419Z,21.77
2018-04-12T14:19:38.072Z,21.50
2018-04-12T14:22:05.680Z,20.33
2018-04-12T14:24:33.615Z,20.97
2018-04-12T14:27:01.262Z,20.50
2018-04-12T14:29:28.947Z,20.10
2018-04-12T14:31:56.598Z,22.00
2018-04-12T14:34:24.681Z,22.27
2018-04-12T14:36:52.348Z,20.47
2018-04-12T14:39:20.218Z,20.83
2018-04-12T14:41:48.153Z,21.57
2018-04-12T14:44:15.844Z,21.63
2018-04-12T14:46:43.574Z,21.23
2018-04-12T14:49:11.615Z,19.10
2018-04-12T14:51:39.233Z,20.97
2018-04-12T14:54:06.844Z,19.67
2018-04-12T14:56:34.460Z,20.47
2018-04-12T14:59:02.065Z,21.03
2018-04-12T15:01:29.643Z,20.70
2018-04-12T15:03:57.253Z,20.23
2018-04-12T15:06:24.896Z,21.30
2018-04-12T15:08:53.929Z,21.43
2018-04-12T15:11:21.501Z,20.50
2018-04-12T15:13:49.122Z,20.17
2018-04-12T15:16:16.693Z,20.80
2018-04-12T15:18:44.321Z,20.67
2018-04-12T15:21:11.929Z,19.27
2018-04-12T15:23:39.512Z,19.57
2018-04-12T15:26:07.131Z,18.87
2018-04-12T15:28:34.709Z,18.97
2018-04-12T15:31:03.054Z,18.27
2018-04-12T15:33:30.674Z,18.00
2018-04-12T15:35:59.090Z,17.47
2018-04-12T15:38:26.668Z,17.67
2018-04-12T15:40:54.302Z,18.37
2018-04-12T15:43:21.928Z,17.40
2018-04-12T15:45:49.545Z,18.43
2018-04-12T15:48:17.160Z,18.17
2018-04-12T15:50:44.732Z,18.40
2018-04-12T15:53:12.341Z,18.10
2018-04-12T15:55:39.988Z,18.23
2018-04-12T15:58:07.682Z,17.83
2018-04-12T16:00:36.041Z,17.67
2018-04-12T16:03:03.725Z,17.83
2018-04-12T16:05:31.300Z,18.57
2018-04-12T16:07:59.722Z,16.83
2018-04-12T16:10:27.293Z,18.37
2018-04-12T16:12:54.908Z,17.93
2018-04-12T16:15:23.716Z,18.27
2018-04-12T16:17:51.393Z,17.93
2018-04-12T16:20:18.969Z,16.40
2018-04-12T16:22:46.577Z,18.80
2018-04-12T16:25:14.149Z,17.90
2018-04-12T16:27:41.758Z,17.77
2018-04-12T16:30:09.370Z,19.00
2018-04-12T16:32:37.706Z,19.07
2018-04-12T16:35:05.331Z,18.77
2018-04-12T16:37:32.928Z,19.43
2018-04-12T16:40:00.507Z,18.77
2018-04-12T16:42:28.128Z,19.00
2018-04-12T16:44:55.702Z,21.10
2018-04-12T16:47:23.322Z,20.53
2018-04-12T16:49:50.939Z,18.87
2018-04-12T16:52:18.591Z,19.33
2018-04-12T16:54:46.204Z,19.00
2018-04-12T16:57:13.856Z,19.53
2018-04-12T16:59:42.199Z,19.53
2018-04-12T17:02:09.786Z,18.77
2018-04-12T17:04:37.401Z,19.90
2018-04-12T17:07:05.062Z,19.87
2018-04-12T17:09:32.693Z,19.67
2018-04-12T17:12:01.046Z,20.40
2018-04-12T17:14:28.622Z,18.67
2018-04-12T17:16:57.001Z,20.07
2018-04-12T17:19:25.342Z,21.50
2018-04-12T17:21:52.921Z,20.53
2018-04-12T17:24:20.533Z,20.67
2018-04-12T17:26:48.141Z,21.30
2018-04-12T17:29:15.755Z,19.60
2018-04-12T17:31:43.344Z,20.63
2018-04-12T17:34:10.969Z,20.83
2018-04-12T17:36:38.536Z,21.17
2018-04-12T17:39:06.110Z,21.73
2018-04-12T17:41:33.745Z,21.33
2018-04-12T17:44:01.328Z,21.83
2018-04-12T17:46:28.935Z,21.53
2018-04-12T17:48:56.617Z,20.23
2018-04-12T17:51:24.440Z,21.53
2018-04-12T17:53:52.077Z,20.83
2018-04-12T17:56:19.685Z,21.53
2018-04-12T17:58:47.296Z,21.43
2018-04-12T18:01:14.864Z,21.23
2018-04-12T18:03:42.471Z,20.90
2018-04-12T18:06:10.098Z,22.10
2018-04-12T18:08:37.669Z,22.47
2018-04-12T18:11:07.110Z,21.57
2018-04-12T18:13:34.721Z,22.07
2018-04-12T18:16:03.477Z,21.83
2018-04-12T18:18:32.090Z,21.73
2018-04-12T18:20:59.745Z,22.37
2018-04-12T18:23:27.324Z,21.90
2018-04-12T18:25:54.945Z,21.97
2018-04-12T18:28:22.974Z,21.67
2018-04-12T18:30:51.349Z,23.30
2018-04-12T18:33:19.372Z,24.53
2018-04-12T18:35:47.049Z,24.03
2018-04-12T18:38:14.798Z,24.70
2018-04-12T18:40:42.433Z,26.73
2018-04-12T18:43:10.045Z,26.77
2018-04-12T18:45:37.615Z,27.47
2018-04-12T18:48:10.375Z,26.57
2018-04-12T18:50:42.649Z,28.43
2018-04-12T18:53:13.391Z,28.17
2018-04-12T18:55:45.706Z,28.07
2018-04-12T18:58:17.161Z,27.70
2018-04-12T19:00:53.572Z,26.97
2018-04-12T19:03:24.802Z,28.53
2018-04-12T19:05:58.129Z,29.97
2018-04-12T19:08:28.991Z,28.67
2018-04-12T19:11:02.921Z,29.10
2018-04-12T19:13:32.399Z,28.97
2018-04-12T19:16:04.092Z,29.73
2018-04-12T19:18:31.668Z,29.87
2018-04-12T19:21:00.010Z,29.90
2018-04-12T19:23:27.695Z,30.43
2018-04-12T19:25:55.301Z,28.87
2018-04-12T19:28:22.924Z,29.97
2018-04-12T19:30:50.581Z,30.77
2018-04-12T19:33:18.196Z,30.93
2018-04-12T19:35:45.972Z,29.23
2018-04-12T19:38:13.585Z,29.57
2018-04-12T19:40:41.329Z,29.70
2018-04-12T19:43:08.901Z,29.60
2018-04-12T19:45:36.556Z,29.37
2018-04-12T19:48:04.136Z,31.00
2018-04-12T19:50:32.512Z,28.37
2018-04-12T19:53:00.856Z,29.70
2018-04-12T19:55:28.468Z,29.87
2018-04-12T19:57:56.852Z,29.83
2018-04-12T20:00:24.477Z,29.47
2018-04-12T20:02:56.090Z,30.30
2018-04-12T20:05:23.842Z,31.40
2018-04-12T20:07:51.648Z,29.23
2018-04-12T20:10:19.288Z,28.93
2018-04-12T20:12:46.909Z,31.43
2018-04-12T20:15:16.530Z,30.77
2018-04-12T20:17:44.147Z,30.57
2018-04-12T20:20:11.754Z,30.57
2018-04-12T20:22:41.418Z,29.87
2018-04-12T20:25:12.100Z,29.87
2018-04-12T20:27:40.959Z,30.17
2018-04-12T20:30:08.593Z,31.07
2018-04-12T20:32:36.220Z,31.57
2018-04-12T20:35:03.825Z,32.30
2018-04-12T20:37:31.677Z,32.13
2018-04-12T20:39:59.404Z,31.80
2018-04-12T20:42:30.140Z,32.33
2018-04-12T20:44:59.085Z,32.03
2018-04-12T20:47:26.905Z,33.00
2018-04-12T20:49:54.499Z,33.27
2018-04-12T20:52:22.133Z,33.17
2018-04-12T20:54:49.709Z,32.47
2018-04-12T20:57:17.306Z,34.00
2018-04-12T20:59:44.932Z,32.80
2018-04-12T21:02:12.511Z,33.57
2018-04-12T21:04:40.125Z,34.93
2018-04-12T21:07:07.747Z,33.67
2018-04-12T21:09:35.358Z,34.50
2018-04-12T21:12:02.965Z,33.83
2018-04-12T21:14:30.553Z,34.83
2018-04-12T21:16:59.024Z,33.90
2018-04-12T21:19:26.643Z,33.63
2018-04-12T21:21:54.231Z,33.23
2018-04-12T21:24:22.518Z,33.53
2018-04-12T21:26:50.297Z,35.07
2018-04-12T21:29:18.689Z,34.53
2018-04-12T21:31:46.373Z,35.30
2018-04-12T21:34:14.004Z,34.47
2018-04-12T21:36:42.946Z,35.23
2018-04-12T21:39:10.555Z,34.50
2018-04-12T21:41:38.995Z,35.57
2018-04-12T21:44:06.629Z,36.27
2018-04-12T21:46:34.445Z,36.47
2018-04-12T21:49:02.215Z,34.30
2018-04-12T21:51:29.792Z,34.63
2018-04-12T21:54:00.301Z,34.97
2018-04-12T21:56:27.917Z,35.27
2018-04-12T21:58:55.562Z,34.43
2018-04-12T22:01:24.097Z,35.53
2018-04-12T22:03:51.666Z,35.10
2018-04-12T22:06:19.298Z,34.03
2018-04-12T22:08:46.931Z,34.83
2018-04-12T22:11:15.268Z,34.83
2018-04-12T22:13:42.890Z,34.00
2018-04-12T22:16:10.527Z,34.17
2018-04-12T22:18:38.874Z,34.80
2018-04-12T22:21:06.538Z,33.97
2018-04-12T22:23:34.129Z,34.67
2018-04-12T22:26:02.544Z,35.13
2018-04-12T22:28:30.201Z,34.30
2018-04-12T22:30:57.814Z,32.90
2018-04-12T22:33:25.388Z,35.03
2018-04-12T22:35:53.006Z,34.60
2018-04-12T22:38:20.577Z,34.40
2018-04-12T22:40:48.149Z,35.10
2018-04-12T22:43:15.770Z,34.97
2018-04-12T22:45:43.391Z,34.87
2018-04-12T22:48:11.734Z,33.83
2018-04-12T22:50:39.312Z,34.30
2018-04-12T22:53:06.922Z,33.83
2018-04-12T22:55:34.500Z,34.60
2018-04-12T22:58:02.115Z,34.13
2018-04-12T23:00:30.449Z,32.87
2018-04-12T23:02:58.811Z,33.73
2018-04-12T23:05:26.437Z,33.73
2018-04-12T23:07:54.816Z,34.40
2018-04-12T23:10:23.193Z,33.80
2018-04-12T23:12:51.528Z,36.13
2018-04-12T23:15:19.129Z,33.00
2018-04-12T23:17:46.714Z,34.07
2018-04-12T23:20:14.333Z,34.30
2018-04-12T23:22:41.904Z,33.67
2018-04-12T23:25:09.477Z,32.93
2018-04-12T23:27:37.854Z,34.03
2018-04-12T23:30:06.229Z,33.00
2018-04-12T23:32:33.834Z,32.87
2018-04-12T23:35:01.405Z,33.80
2018-04-12T23:37:29.029Z,34.90
2018-04-12T23:39:56.669Z,33.37
2018-04-12T23:42:24.241Z,34.33
2018-04-12T23:44:52.729Z,34.50
2018-04-12T23:47:21.122Z,33.90
2018-04-12T23:49:48.741Z,33.33
2018-04-12T23:52:16.355Z,33.17
2018-04-12T23:54:43.929Z,32.23
2018-04-12T23:57:11.555Z,32.40
2018-04-12T23:59:39.946Z,32.93
